Time;durP1;ratioP1;P1;durP2;ratioP2;P2;SDS_P1;SDS_P2;PMS_P1;PMS_P2;Temp;Humidity;BMP_temperature;BMP_pressure;BME280_temperature;BME280_humidity;BME280_pressure;Samples;Min_cycle;Max_cycle;Signal;HPM_P1;HPM_P2
2021/01/28 00:02:19;;;;;;;8.60;3.97;;;;;;;-5.02;95.10;98956.00;4953477;29;20058;-62
2021/01/28 00:05:12;;;;;;;9.30;4.57;;;;;;;-5.10;94.91;98954.56;4953162;29;20055;-61
2021/01/28 00:07:58;;;;;;;10.88;3.30;;;;;;;-5.20;95.01;98959.91;4953152;29;20055;-61
2021/01/28 00:10:43;;;;;;;9.77;4.38;;;;;;;-5.15;96.24;98964.88;4953466;29;20401;-61
2021/01/28 00:13:29;;;;;;;13.82;4.50;;;;;;;-5.17;96.27;98971.75;4953075;29;20050;-61
2021/01/28 00:16:14;;;;;;;9.27;3.78;;;;;;;-5.20;95.96;98970.09;4952072;29;20051;-61
2021/01/28 00:19:00;;;;;;;7.97;3.90;;;;;;;-5.17;96.92;98977.66;4951790;29;20532;-61
2021/01/28 00:21:45;;;;;;;10.70;3.85;;;;;;;-5.17;97.05;98972.56;4952940;29;20092;-60
2021/01/28 00:24:31;;;;;;;9.30;2.97;;;;;;;-5.09;97.64;98979.97;4952933;29;20529;-59
2021/01/28 00:27:16;;;;;;;11.57;3.38;;;;;;;-5.04;97.70;98984.94;4953489;29;20054;-59
2021/01/28 00:30:04;;;;;;;7.68;3.08;;;;;;;-5.01;97.44;98987.41;4953261;29;20572;-60
2021/01/28 00:32:50;;;;;;;11.02;4.32;;;;;;;-5.07;96.15;98992.69;4952035;29;20122;-61
2021/01/28 00:35:38;;;;;;;10.05;3.67;;;;;;;-5.03;96.23;98994.25;4952930;29;20093;-61
2021/01/28 00:38:25;;;;;;;6.53;3.22;;;;;;;-5.00;97.20;99000.09;4952087;29;20136;-59
2021/01/28 00:41:11;;;;;;;9.65;3.60;;;;;;;-4.98;97.12;98995.81;4952960;29;20058;-60
2021/01/28 00:43:56;;;;;;;10.32;3.55;;;;;;;-4.97;96.66;98994.09;4952434;29;20058;-60
2021/01/28 00:46:41;;;;;;;8.75;3.40;;;;;;;-4.94;97.41;98999.09;4952660;29;20055;-60
2021/01/28 00:49:27;;;;;;;8.50;4.25;;;;;;;-4.93;97.49;98998.22;4952259;28;20057;-61
2021/01/28 00:52:12;;;;;;;7.03;3.05;;;;;;;-4.93;97.24;98993.97;4951654;29;20184;-60
2021/01/28 00:54:57;;;;;;;11.35;3.80;;;;;;;-4.93;96.45;99004.16;4951634;29;20093;-60
2021/01/28 00:57:42;;;;;;;8.85;3.10;;;;;;;-5.05;95.22;98999.41;4950639;29;20179;-60
2021/01/28 01:00:28;;;;;;;9.95;3.75;;;;;;;-5.15;95.19;98993.75;4949964;28;20062;-60
2021/01/28 01:03:20;;;;;;;6.95;3.25;;;;;;;-5.20;95.68;98994.75;4948625;29;20059;-60
2021/01/28 01:06:06;;;;;;;7.20;3.97;;;;;;;-5.10;96.95;98991.06;4952137;29;20055;-60
2021/01/28 01:08:53;;;;;;;11.50;4.18;;;;;;;-5.04;98.20;98993.41;4951282;29;20054;-60
2021/01/28 01:11:46;;;;;;;8.52;3.60;;;;;;;-5.03;96.78;98995.13;4950203;29;20097;-60
2021/01/28 01:14:31;;;;;;;9.25;3.42;;;;;;;-5.05;96.88;98996.03;4951786;29;20072;-61
2021/01/28 01:17:17;;;;;;;7.28;3.38;;;;;;;-5.12;95.09;98997.09;4951609;29;20058;-61
2021/01/28 01:20:08;;;;;;;9.90;3.30;;;;;;;-5.21;94.67;99004.13;4951396;29;20730;-60
2021/01/28 01:22:57;;;;;;;7.80;3.28;;;;;;;-5.21;95.59;98998.19;4951431;29;20050;-60
2021/01/28 01:25:46;;;;;;;8.00;3.25;;;;;;;-5.17;96.61;99000.59;4950980;29;20144;-59
2021/01/28 01:28:31;;;;;;;6.72;3.17;;;;;;;-5.18;96.50;98998.91;4952385;28;20552;-60
2021/01/28 01:31:22;;;;;;;7.97;3.30;;;;;;;-5.17;96.83;98998.06;4949744;29;20132;-61
2021/01/28 01:34:07;;;;;;;9.57;3.72;;;;;;;-5.17;96.81;99002.31;4951897;29;20402;-61
2021/01/28 01:36:53;;;;;;;9.45;4.47;;;;;;;-5.22;95.62;99005.00;4951083;29;20058;-61
2021/01/28 01:39:38;;;;;;;9.52;3.80;;;;;;;-5.17;97.04;99009.97;4952072;29;20062;-60
2021/01/28 01:42:27;;;;;;;6.90;3.15;;;;;;;-5.15;96.94;99006.47;4951107;29;20070;-60
2021/01/28 01:45:13;;;;;;;8.65;3.65;;;;;;;-5.15;96.41;99005.66;4950537;29;20051;-60
2021/01/28 01:48:23;;;;;;;7.20;3.25;;;;;;;-5.09;96.88;99000.38;4952027;29;20116;-60
2021/01/28 01:51:25;;;;;;;11.02;3.65;;;;;;;-5.11;96.56;99007.25;4951178;29;20105;-60
2021/01/28 01:54:33;;;;;;;8.13;3.25;;;;;;;-5.06;96.78;99009.66;4950710;29;20055;-60
2021/01/28 01:57:30;;;;;;;6.30;3.00;;;;;;;-5.11;96.42;99016.59;4950543;29;20197;-60
2021/01/28 02:00:22;;;;;;;7.20;3.58;;;;;;;-5.09;96.54;99017.38;4950803;29;20517;-60
2021/01/28 02:03:33;;;;;;;6.53;3.30;;;;;;;-5.07;96.67;99015.63;4951078;29;20053;-60
2021/01/28 02:06:48;;;;;;;10.23;3.88;;;;;;;-5.10;96.08;99013.16;4951088;29;20066;-60
2021/01/28 02:10:10;;;;;;;9.65;4.63;;;;;;;-5.09;96.96;99014.81;4941562;28;20066;-60
2021/01/28 02:13:16;;;;;;;8.95;3.72;;;;;;;-5.13;96.63;99021.72;4951447;29;20077;-60
2021/01/28 02:16:10;;;;;;;7.63;3.67;;;;;;;-5.10;97.26;99025.91;4949806;29;20096;-60
2021/01/28 02:19:12;;;;;;;8.45;3.72;;;;;;;-5.07;97.95;99024.13;4950539;28;20058;-60
2021/01/28 02:22:01;;;;;;;10.25;3.72;;;;;;;-5.06;96.84;99027.50;4950547;29;20054;-60
2021/01/28 02:24:53;;;;;;;9.85;4.05;;;;;;;-5.05;97.57;99022.34;4951136;29;20130;-59
2021/01/28 02:27:44;;;;;;;12.13;5.25;;;;;;;-5.05;96.84;99022.34;4949039;29;20065;-60
2021/01/28 02:30:57;;;;;;;9.38;3.47;;;;;;;-5.04;97.34;99020.63;4949897;28;20078;-60
2021/01/28 02:33:53;;;;;;;8.68;3.42;;;;;;;-5.06;96.12;99028.31;4951190;29;20410;-60
2021/01/28 02:36:58;;;;;;;9.95;4.03;;;;;;;-5.07;97.02;99030.94;4950055;29;20108;-60
2021/01/28 02:40:03;;;;;;;10.95;3.90;;;;;;;-5.06;97.29;99030.88;4950183;28;20089;-60
2021/01/28 02:43:23;;;;;;;10.30;3.78;;;;;;;-5.11;97.81;99024.25;4949429;29;20066;-60
2021/01/28 02:46:28;;;;;;;7.05;3.53;;;;;;;-5.08;97.04;99027.56;4947132;29;20074;-62
2021/01/28 02:49:25;;;;;;;7.97;2.80;;;;;;;-5.09;96.93;99033.50;4947139;28;20066;-60
2021/01/28 02:52:14;;;;;;;8.43;3.45;;;;;;;-5.03;96.83;99032.50;4947984;29;20055;-61
2021/01/28 02:55:06;;;;;;;8.07;3.65;;;;;;;-5.07;95.85;99034.31;4949139;28;20429;-60
2021/01/28 02:57:51;;;;;;;10.07;3.80;;;;;;;-5.16;96.21;99027.75;4948970;29;21508;-60
2021/01/28 03:00:37;;;;;;;8.25;3.13;;;;;;;-5.12;96.38;99038.69;4949164;28;20053;-60
2021/01/28 03:03:22;;;;;;;8.30;3.85;;;;;;;-5.14;96.20;99035.34;4948965;29;20058;-60
2021/01/28 03:06:10;;;;;;;9.55;3.58;;;;;;;-5.15;97.25;99038.78;4949720;29;20066;-60
2021/01/28 03:08:58;;;;;;;9.43;3.58;;;;;;;-5.10;96.80;99043.75;4948865;29;20059;-60
2021/01/28 03:12:10;;;;;;;9.38;3.63;;;;;;;-5.16;95.74;99032.84;4945445;28;20066;-60
2021/01/28 03:15:23;;;;;;;8.00;3.53;;;;;;;-5.18;96.25;99036.31;4944417;28;20054;-62
2021/01/28 03:18:11;;;;;;;11.23;4.28;;;;;;;-5.17;97.00;99035.44;4949293;29;20055;-60
2021/01/28 03:20:56;;;;;;;10.63;3.42;;;;;;;-5.20;96.57;99031.25;4947428;29;20133;-60
2021/01/28 03:24:06;;;;;;;8.32;3.40;;;;;;;-5.30;95.73;99029.00;4949717;28;20089;-60
2021/01/28 03:27:01;;;;;;;9.60;3.58;;;;;;;-5.34;95.46;99022.34;4952613;29;20420;-60
2021/01/28 03:29:46;;;;;;;8.50;3.80;;;;;;;-5.28;96.94;99027.25;4953540;28;20585;-60
2021/01/28 03:32:32;;;;;;;8.50;3.72;;;;;;;-5.33;96.61;99022.28;4953118;28;20066;-60
2021/01/28 03:35:20;;;;;;;11.60;4.93;;;;;;;-5.25;97.87;99027.19;4953841;28;20181;-60
2021/01/28 03:38:07;;;;;;;8.07;4.35;;;;;;;-5.25;96.50;99022.06;4952965;29;20511;-60
2021/01/28 03:40:52;;;;;;;10.57;4.03;;;;;;;-5.22;97.37;99030.47;4953055;29;20050;-60
2021/01/28 03:43:39;;;;;;;7.00;3.67;;;;;;;-5.22;97.41;99027.09;4953688;28;20083;-60
2021/01/28 03:46:26;;;;;;;7.35;3.40;;;;;;;-5.14;98.47;99037.91;4952689;29;20054;-61
2021/01/28 03:49:11;;;;;;;8.25;3.75;;;;;;;-5.11;97.25;99037.81;4951151;29;20496;-60
2021/01/28 03:52:13;;;;;;;8.13;3.22;;;;;;;-5.08;97.62;99036.88;4953618;29;20058;-60
2021/01/28 03:55:18;;;;;;;9.18;3.92;;;;;;;-5.05;97.61;99045.28;4953515;29;20054;-63
2021/01/28 03:58:04;;;;;;;10.30;3.83;;;;;;;-5.01;98.13;99043.50;4953978;29;20054;-60
2021/01/28 04:00:51;;;;;;;9.30;4.07;;;;;;;-5.06;96.70;99035.97;4952584;29;20136;-60
2021/01/28 04:03:38;;;;;;;9.30;3.85;;;;;;;-5.03;97.37;99045.22;4952043;28;20062;-61
2021/01/28 04:06:36;;;;;;;7.63;4.00;;;;;;;-5.04;96.38;99048.66;4950710;28;20509;-60
2021/01/28 04:09:42;;;;;;;12.10;5.68;;;;;;;-5.04;96.50;99046.94;4952253;29;20050;-60
2021/01/28 04:12:31;;;;;;;10.60;4.32;;;;;;;-5.12;95.73;99051.44;4952994;28;20054;-60
2021/01/28 04:15:28;;;;;;;10.48;3.85;;;;;;;-5.08;95.92;99058.13;4951766;28;20070;-60
2021/01/28 04:18:17;;;;;;;8.23;3.60;;;;;;;-5.10;95.57;99056.50;4952464;29;20104;-60
2021/01/28 04:21:05;;;;;;;9.45;3.28;;;;;;;-5.13;95.51;99054.00;4952314;29;20132;-60
2021/01/28 04:23:50;;;;;;;8.70;4.15;;;;;;;-5.10;96.93;99053.94;4952422;29;20108;-60
2021/01/28 04:26:55;;;;;;;9.82;3.88;;;;;;;-5.12;96.61;99050.63;4948033;28;20050;-60
2021/01/28 04:30:20;;;;;;;9.43;4.10;;;;;;;-5.09;96.92;99056.44;4949131;28;20572;-61
2021/01/28 04:33:13;;;;;;;6.95;2.97;;;;;;;-5.08;96.80;99054.72;4952018;29;20054;-61
2021/01/28 04:35:59;;;;;;;10.00;3.97;;;;;;;-5.09;97.35;99056.44;4952991;29;20058;-60
2021/01/28 04:38:45;;;;;;;11.95;5.65;;;;;;;-5.08;96.95;99053.03;4951775;29;20061;-61
2021/01/28 04:41:31;;;;;;;10.45;3.97;;;;;;;-5.15;96.58;99061.72;4951572;28;20405;-60
2021/01/28 04:44:20;;;;;;;10.82;4.28;;;;;;;-5.06;96.79;99068.28;4951638;29;20189;-60
2021/01/28 04:47:20;;;;;;;9.57;3.65;;;;;;;-5.05;96.73;99063.13;4950209;28;20051;-61
2021/01/28 04:50:10;;;;;;;7.88;3.72;;;;;;;-5.02;96.74;99064.78;4952843;28;20051;-60
2021/01/28 04:53:22;;;;;;;12.52;3.70;;;;;;;-5.01;97.94;99066.44;4952587;28;20398;-61
2021/01/28 04:56:21;;;;;;;11.02;4.22;;;;;;;-4.93;98.75;99067.06;4951236;29;20062;-60
2021/01/28 04:59:52;;;;;;;10.27;3.50;;;;;;;-4.95;96.74;99076.44;4951312;29;20054;-60
2021/01/28 05:02:38;;;;;;;6.68;3.72;;;;;;;-4.93;96.85;99073.00;4951754;28;20055;-62
2021/01/28 05:05:45;;;;;;;8.10;4.00;;;;;;;-4.98;96.69;99074.00;4951538;29;20062;-60
2021/01/28 05:08:42;;;;;;;8.38;4.40;;;;;;;-4.96;96.33;99080.72;4951465;28;20418;-60
2021/01/28 05:11:56;;;;;;;8.98;4.53;;;;;;;-4.97;95.56;99080.78;4952817;29;20067;-60
2021/01/28 05:15:23;;;;;;;8.40;3.97;;;;;;;-4.99;95.85;99072.31;4946602;28;20067;-60
2021/01/28 05:18:42;;;;;;;8.10;3.75;;;;;;;-5.06;96.09;99073.38;4951334;29;20186;-60
2021/01/28 05:22:15;;;;;;;8.80;4.20;;;;;;;-5.02;96.97;99063.06;4934993;29;20058;-60
2021/01/28 05:25:32;;;;;;;9.32;4.32;;;;;;;-5.01;97.59;99067.25;4951089;28;20074;-61
2021/01/28 05:28:41;;;;;;;9.35;3.30;;;;;;;-4.98;96.92;99066.34;4949721;29;20176;-61
2021/01/28 05:31:38;;;;;;;9.32;3.78;;;;;;;-4.98;97.33;99062.09;4952148;28;20098;-61
2021/01/28 05:34:43;;;;;;;9.02;3.95;;;;;;;-4.96;97.06;99067.13;4943563;29;20105;-60
2021/01/28 05:37:38;;;;;;;7.90;4.03;;;;;;;-4.96;96.64;99060.31;4949954;29;20132;-61
2021/01/28 05:41:00;;;;;;;11.52;4.25;;;;;;;-4.95;97.79;99069.63;4950755;28;20046;-60
2021/01/28 05:43:52;;;;;;;9.55;4.13;;;;;;;-4.94;97.45;99061.13;4950939;29;20497;-61
2021/01/28 05:46:41;;;;;;;10.52;5.05;;;;;;;-4.95;97.75;99069.63;4949976;28;20062;-61
2021/01/28 05:49:52;;;;;;;13.55;4.57;;;;;;;-4.87;97.03;99063.50;4950889;28;20082;-61
2021/01/28 05:52:41;;;;;;;9.68;3.88;;;;;;;-4.88;98.07;99069.47;4951044;29;20501;-61
2021/01/28 05:55:31;;;;;;;9.65;4.05;;;;;;;-4.85;97.77;99069.38;4950670;28;20054;-61
2021/01/28 05:58:56;;;;;;;8.70;3.22;;;;;;;-4.86;96.70;99071.09;4950723;28;20505;-61
2021/01/28 06:02:00;;;;;;;8.52;4.25;;;;;;;-4.81;98.07;99078.63;4950795;29;20144;-61
2021/01/28 06:05:11;;;;;;;8.50;3.47;;;;;;;-4.86;96.75;99076.19;4951378;28;20414;-61
2021/01/28 06:08:27;;;;;;;11.30;4.60;;;;;;;-4.82;96.81;99082.88;4950327;28;20418;-60
2021/01/28 06:11:50;;;;;;;6.80;3.75;;;;;;;-4.84;97.89;99079.56;4951417;29;20049;-61
2021/01/28 06:14:53;;;;;;;9.68;3.97;;;;;;;-4.83;97.55;99073.56;4950994;29;20051;-60
2021/01/28 06:18:17;;;;;;;7.20;3.13;;;;;;;-4.77;97.53;99077.66;4950247;28;20461;-60
2021/01/28 06:21:56;;;;;;;;;;;;;;;-4.82;96.48;99079.50;4951172;29;20062;-61
2021/01/28 06:25:03;;;;;;;;;;;;;;;-4.85;96.79;99084.69;4964950;28;19929;-60
2021/01/28 06:28:22;;;;;;;7.57;3.65;;;;;;;-4.82;96.92;99082.03;4949159;28;20036;-60
2021/01/28 06:31:35;;;;;;;14.93;5.85;;;;;;;-4.80;98.51;99081.09;4950201;29;20057;-60
2021/01/28 06:35:04;;;;;;;11.75;5.05;;;;;;;-4.78;97.83;99086.19;4950945;28;20265;-60
2021/01/28 06:38:44;;;;;;;10.80;4.35;;;;;;;-4.77;97.31;99092.94;4950267;29;20066;-61
2021/01/28 06:42:12;;;;;;;13.63;5.90;;;;;;;-4.80;96.89;99098.97;4963502;28;20517;-60
2021/01/28 06:45:18;;;;;;;16.92;7.07;;;;;;;-4.76;97.88;99103.09;4949444;29;20078;-61
2021/01/28 06:48:23;;;;;;;15.18;6.55;;;;;;;-4.72;98.05;99104.69;4949850;29;20580;-60
2021/01/28 06:51:36;;;;;;;12.38;5.50;;;;;;;-4.72;97.71;99109.78;4949848;29;20137;-61
2021/01/28 06:54:38;;;;;;;12.60;5.50;;;;;;;-4.73;96.74;99102.19;4949531;28;20185;-62
2021/01/28 06:57:45;;;;;;;10.93;4.70;;;;;;;-4.70;97.61;99107.19;4951640;28;20089;-62
2021/01/28 07:00:49;;;;;;;12.75;4.90;;;;;;;-4.71;97.55;99097.88;4953478;28;20066;-61
2021/01/28 07:03:38;;;;;;;8.57;4.15;;;;;;;-4.66;96.56;99101.13;4953042;29;20188;-61
2021/01/28 07:06:56;;;;;;;9.73;4.57;;;;;;;-4.64;97.09;99105.31;4952863;28;20121;-60
2021/01/28 07:10:11;;;;;;;10.05;4.40;;;;;;;-4.64;97.01;99107.03;4952864;29;20058;-61
2021/01/28 07:13:19;;;;;;;8.38;3.80;;;;;;;-4.66;96.00;99112.16;4952124;28;20046;-60
2021/01/28 07:16:30;;;;;;;9.00;4.18;;;;;;;-4.62;96.07;99112.91;4951510;29;20587;-60
2021/01/28 07:19:22;;;;;;;10.25;5.13;;;;;;;-4.60;96.65;99112.84;4952869;29;20130;-60
2021/01/28 07:22:27;;;;;;;10.23;4.80;;;;;;;-4.57;97.42;99123.81;4953099;29;20186;-61
2021/01/28 07:25:31;;;;;;;10.68;4.70;;;;;;;-4.54;97.30;99120.34;4951474;29;20539;-61
2021/01/28 07:28:16;;;;;;;8.73;4.38;;;;;;;-4.52;97.25;99128.78;4954111;29;20066;-61
2021/01/28 07:31:05;;;;;;;11.93;4.95;;;;;;;-4.49;97.62;99128.72;4953983;29;20062;-61
2021/01/28 07:33:56;;;;;;;9.57;4.60;;;;;;;-4.51;97.19;99133.88;4954258;29;20050;-60
2021/01/28 07:37:22;;;;;;;11.05;4.63;;;;;;;-4.46;97.15;99143.94;4951063;29;20082;-61
2021/01/28 07:41:04;;;;;;;14.40;6.65;;;;;;;-4.43;97.27;99152.31;4953528;29;20066;-61
2021/01/28 07:44:24;;;;;;;10.27;4.60;;;;;;;-4.46;96.63;99162.63;4952481;28;20066;-61
2021/01/28 07:47:31;;;;;;;13.65;4.78;;;;;;;-4.45;97.18;99156.63;4952568;29;20528;-61
2021/01/28 07:50:31;;;;;;;14.50;5.63;;;;;;;-4.41;97.75;99153.13;4951877;28;20370;-62
2021/01/28 07:53:38;;;;;;;11.40;4.85;;;;;;;-4.43;97.00;99154.88;4953958;28;20140;-61
2021/01/28 07:56:35;;;;;;;11.80;4.20;;;;;;;-4.40;97.30;99156.50;4953485;28;20070;-61
2021/01/28 07:59:30;;;;;;;13.38;5.55;;;;;;;-4.34;96.87;99155.50;4953785;29;20066;-61
2021/01/28 08:02:30;;;;;;;17.15;5.82;;;;;;;-4.30;97.08;99149.41;4953273;28;20078;-61
2021/01/28 08:05:23;;;;;;;12.25;4.30;;;;;;;-4.31;96.28;99156.25;4951338;29;20142;-61
2021/01/28 08:08:12;;;;;;;18.52;6.03;;;;;;;-4.31;95.87;99152.88;4952805;28;20058;-61
2021/01/28 08:11:21;;;;;;;11.60;4.82;;;;;;;-4.28;95.50;99151.03;4952573;29;20081;-61
2021/01/28 08:14:11;;;;;;;8.80;4.43;;;;;;;-4.30;95.37;99141.75;4952360;28;20046;-62
2021/01/28 08:16:57;;;;;;;13.43;6.18;;;;;;;-4.28;96.94;99142.53;4953101;29;20057;-60
2021/01/28 08:19:42;;;;;;;13.57;5.88;;;;;;;-4.26;97.22;99135.69;4952906;28;20049;-61
2021/01/28 08:22:29;;;;;;;13.90;5.25;;;;;;;-4.19;97.32;99148.22;4951444;29;20054;-61
2021/01/28 08:25:15;;;;;;;12.77;4.38;;;;;;;-4.17;96.59;99145.63;4952718;29;20058;-60
2021/01/28 08:28:14;;;;;;;13.68;5.72;;;;;;;-4.16;96.90;99155.78;4950800;29;20054;-60
2021/01/28 08:31:02;;;;;;;10.82;5.03;;;;;;;-4.14;96.75;99154.00;4952463;28;20070;-60
2021/01/28 08:33:56;;;;;;;14.73;5.07;;;;;;;-4.12;96.59;99148.88;4952952;29;20046;-60
2021/01/28 08:36:43;;;;;;;16.92;6.95;;;;;;;-4.04;96.94;99151.19;4951389;29;20050;-61
2021/01/28 08:39:36;;;;;;;12.82;5.28;;;;;;;-3.99;96.34;99159.53;4952488;29;20132;-60
2021/01/28 08:42:23;;;;;;;14.57;5.63;;;;;;;-3.96;95.81;99159.44;4953019;29;20058;-60
2021/01/28 08:45:24;;;;;;;20.58;8.07;;;;;;;-3.92;95.61;99149.09;4952529;29;20051;-61
2021/01/28 08:48:14;;;;;;;18.40;7.13;;;;;;;-3.94;95.83;99150.00;4951132;29;20050;-61
2021/01/28 08:51:10;;;;;;;10.80;4.72;;;;;;;-3.95;95.88;99156.84;4950672;29;20062;-62
2021/01/28 08:53:59;;;;;;;12.43;4.90;;;;;;;-3.92;96.30;99153.38;4952291;29;20181;-60
2021/01/28 08:56:48;;;;;;;11.88;4.68;;;;;;;-3.85;96.78;99152.28;4951389;29;20058;-61
2021/01/28 08:59:45;;;;;;;14.20;5.63;;;;;;;-3.79;96.11;99148.72;4950969;29;20184;-61
2021/01/28 09:02:42;;;;;;;14.88;5.68;;;;;;;-3.77;95.95;99150.34;4952643;29;20181;-61
2021/01/28 09:05:32;;;;;;;11.80;4.63;;;;;;;-3.71;95.79;99156.97;4950258;29;20054;-60
2021/01/28 09:08:31;;;;;;;13.95;5.32;;;;;;;-3.71;95.87;99150.13;4952588;29;20065;-60
2021/01/28 09:11:35;;;;;;;11.63;4.53;;;;;;;-3.66;96.15;99155.94;4952546;29;20098;-61
2021/01/28 09:14:30;;;;;;;13.25;5.10;;;;;;;-3.64;95.51;99155.91;4952048;29;20051;-60
2021/01/28 09:17:15;;;;;;;;;;;;;;;-3.63;95.52;99157.56;4952464;29;20140;-60
2021/01/28 09:20:03;;;;;;;13.15;5.07;;;;;;;-3.56;95.92;99158.19;4951380;28;20069;-61
2021/01/28 09:22:48;;;;;;;10.88;4.43;;;;;;;-3.52;95.54;99159.78;4952503;29;20066;-60
2021/01/28 09:25:37;;;;;;;12.95;4.78;;;;;;;-3.48;94.88;99162.19;4952369;29;20054;-60
2021/01/28 09:28:24;;;;;;;11.73;4.88;;;;;;;-3.48;94.14;99162.19;4952575;29;20133;-61
2021/01/28 09:31:30;;;;;;;10.93;5.03;;;;;;;-3.43;94.38;99162.84;4952163;29;20109;-60
2021/01/28 09:34:26;;;;;;;9.60;4.82;;;;;;;-3.41;94.80;99156.00;4952118;29;20193;-61
2021/01/28 09:37:21;;;;;;;11.27;5.18;;;;;;;-3.38;94.96;99157.59;4951679;29;20058;-61
2021/01/28 09:40:21;;;;;;;8.63;4.05;;;;;;;-3.35;95.30;99168.56;4951609;29;20394;-61
2021/01/28 09:43:33;;;;;;;12.43;4.60;;;;;;;-3.34;95.06;99161.72;4951810;29;20113;-60
2021/01/28 09:46:18;;;;;;;9.93;4.65;;;;;;;-3.32;95.07;99164.22;4951064;29;20058;-60
2021/01/28 09:49:04;;;;;;;14.30;4.60;;;;;;;-3.29;94.94;99162.41;4951762;28;20077;-61
2021/01/28 09:51:50;;;;;;;11.98;5.82;;;;;;;-3.26;94.94;99159.75;4951097;29;20166;-60
2021/01/28 09:54:35;;;;;;;12.30;4.70;;;;;;;-3.29;94.61;99164.97;4951780;29;20162;-62
2021/01/28 09:57:20;;;;;;;8.70;3.70;;;;;;;-3.25;94.72;99170.81;4951117;29;20047;-61
2021/01/28 10:00:25;;;;;;;9.38;4.43;;;;;;;-3.18;95.15;99164.59;4951628;28;20512;-64
2021/01/28 10:03:13;;;;;;;10.25;4.82;;;;;;;-3.16;94.62;99173.91;4951638;29;20054;-60
2021/01/28 10:05:59;;;;;;;11.23;4.80;;;;;;;-3.14;94.96;99174.66;4948943;29;20055;-61
2021/01/28 10:08:44;;;;;;;9.98;4.35;;;;;;;-3.14;95.09;99182.34;4949767;29;20057;-61
2021/01/28 10:11:29;;;;;;;9.60;4.35;;;;;;;-3.06;94.67;99178.72;4949540;29;20152;-61
2021/01/28 10:14:15;;;;;;;13.55;5.40;;;;;;;-3.06;94.60;99176.97;4950042;29;20058;-61
2021/01/28 10:17:00;;;;;;;8.70;4.00;;;;;;;-3.07;95.10;99174.50;4948779;29;20433;-61
2021/01/28 10:19:46;;;;;;;10.57;4.70;;;;;;;-3.01;94.67;99167.44;4949239;29;20508;-61
2021/01/28 10:22:36;;;;;;;10.52;4.18;;;;;;;-2.99;95.31;99170.78;4948775;29;20101;-61
2021/01/28 10:25:22;;;;;;;11.88;4.22;;;;;;;-2.93;95.54;99172.28;4946781;29;20070;-61
2021/01/28 10:28:07;;;;;;;14.95;5.78;;;;;;;-2.91;95.26;99167.94;4949707;28;20053;-61
2021/01/28 10:30:53;;;;;;;10.35;4.10;;;;;;;-2.91;95.10;99163.66;4949621;29;20078;-61
2021/01/28 10:33:39;;;;;;;10.82;5.00;;;;;;;-2.86;95.10;99169.44;4948871;28;20144;-61
2021/01/28 10:36:24;;;;;;;8.82;5.55;;;;;;;-2.79;95.92;99169.25;4949225;28;20525;-61
2021/01/28 10:39:09;;;;;;;9.45;4.65;;;;;;;-2.73;95.65;99162.19;4950882;29;20136;-61
2021/01/28 10:41:55;;;;;;;14.10;4.80;;;;;;;-2.72;94.45;99161.28;4935024;29;20066;-61
2021/01/28 10:44:41;;;;;;;9.20;4.70;;;;;;;-2.66;94.52;99158.53;4930827;29;20054;-60
2021/01/28 10:47:26;;;;;;;14.25;4.80;;;;;;;-2.63;94.71;99163.53;4931785;29;20051;-61
2021/01/28 10:50:27;;;;;;;12.38;4.63;;;;;;;-2.59;94.97;99165.09;4931435;29;20093;-61
2021/01/28 10:53:13;;;;;;;10.75;4.53;;;;;;;-2.53;94.77;99160.66;4931676;29;20460;-62
2021/01/28 10:55:58;;;;;;;12.38;5.18;;;;;;;-2.52;95.43;99159.75;4930535;29;20063;-61
2021/01/28 10:58:43;;;;;;;12.48;5.97;;;;;;;-2.51;94.76;99167.38;4931524;29;20149;-61
2021/01/28 11:01:30;;;;;;;9.00;4.20;;;;;;;-2.48;95.22;99166.44;4931920;29;20063;-61
2021/01/28 11:04:16;;;;;;;11.32;5.38;;;;;;;-2.44;95.45;99171.38;4931471;29;20063;-61
2021/01/28 11:07:02;;;;;;;8.15;4.40;;;;;;;-2.40;96.34;99170.38;4931814;29;20055;-61
2021/01/28 11:09:46;;;;;;;9.50;4.45;;;;;;;-2.30;96.99;99172.59;4932013;29;20067;-60
2021/01/28 11:12:31;;;;;;;10.32;4.70;;;;;;;-2.23;96.83;99174.91;4931428;29;20147;-61
2021/01/28 11:15:17;;;;;;;10.38;5.22;;;;;;;-2.20;96.51;99179.06;4931476;29;20059;-61
2021/01/28 11:18:10;;;;;;;8.23;4.28;;;;;;;-2.12;96.67;99180.44;4931641;29;20076;-61
2021/01/28 11:20:55;;;;;;;9.50;5.18;;;;;;;-2.09;96.79;99182.91;4932085;29;20055;-61
2021/01/28 11:23:39;;;;;;;13.52;6.20;;;;;;;-2.02;96.87;99175.81;4931494;29;20993;-66
2021/01/28 11:26:25;;;;;;;13.02;5.60;;;;;;;-1.97;97.82;99171.34;4930838;29;20071;-66
2021/01/28 11:29:10;;;;;;;9.45;5.45;;;;;;;-1.90;96.88;99177.91;4931646;29;20103;-66
2021/01/28 11:31:55;;;;;;;10.30;4.68;;;;;;;-1.88;96.77;99178.66;4931099;29;20209;-62
2021/01/28 11:34:41;;;;;;;12.85;5.38;;;;;;;-1.93;97.42;99172.88;4931197;29;20117;-64
2021/01/28 11:37:27;;;;;;;9.90;5.35;;;;;;;-1.89;97.10;99176.19;4931070;29;20058;-62
2021/01/28 11:40:20;;;;;;;12.52;5.20;;;;;;;-1.89;97.15;99168.50;4931308;29;20095;-63
2021/01/28 11:43:06;;;;;;;12.60;5.63;;;;;;;-1.84;97.33;99161.47;4931463;29;20063;-64
2021/01/28 11:45:51;;;;;;;11.13;5.55;;;;;;;-1.79;97.26;99161.28;4933544;29;20516;-63
2021/01/28 11:48:38;;;;;;;14.02;5.30;;;;;;;-1.80;97.84;99163.00;4934462;29;20055;-64
2021/01/28 11:51:23;;;;;;;9.70;4.38;;;;;;;-1.79;98.06;99159.56;4934065;29;20059;-64
2021/01/28 11:54:18;;;;;;;8.23;4.20;;;;;;;-1.76;97.21;99169.66;4934378;29;20050;-63
2021/01/28 11:57:04;;;;;;;12.10;5.95;;;;;;;-1.77;97.51;99154.34;4934447;29;20054;-66
2021/01/28 11:59:49;;;;;;;9.50;4.25;;;;;;;-1.75;98.22;99155.97;4934120;29;20101;-65
2021/01/28 12:02:35;;;;;;;7.65;4.10;;;;;;;-1.76;97.50;99151.72;4934036;29;20054;-63
2021/01/28 12:05:23;;;;;;;10.20;5.28;;;;;;;-1.75;98.74;99150.84;4933632;29;20529;-65
2021/01/28 12:08:08;;;;;;;9.82;4.63;;;;;;;-1.73;98.08;99154.16;4934253;29;20051;-65
2021/01/28 12:10:54;;;;;;;9.82;4.82;;;;;;;-1.75;98.44;99155.97;4932469;29;20217;-65
2021/01/28 12:13:39;;;;;;;13.10;5.78;;;;;;;-1.75;97.94;99158.53;4934182;29;20141;-63
2021/01/28 12:16:24;;;;;;;10.32;5.18;;;;;;;-1.75;98.29;99158.53;4933936;29;20149;-65
2021/01/28 12:19:10;;;;;;;11.02;4.90;;;;;;;-1.73;98.45;99164.44;4933995;29;20050;-63
2021/01/28 12:21:55;;;;;;;10.60;4.82;;;;;;;-1.76;98.34;99161.97;4931162;28;20117;-63
2021/01/28 12:24:40;;;;;;;11.23;5.13;;;;;;;-1.73;98.86;99163.59;4929098;29;20059;-63
2021/01/28 12:27:26;;;;;;;13.95;5.47;;;;;;;-1.76;99.17;99164.53;4929959;29;20214;-64
2021/01/28 12:30:14;;;;;;;12.60;5.60;;;;;;;-1.78;98.89;99161.22;4932874;29;20059;-64
2021/01/28 12:32:59;;;;;;;10.40;5.05;;;;;;;-1.77;99.83;99167.16;4931053;29;20137;-64
2021/01/28 12:35:44;;;;;;;11.90;5.53;;;;;;;-1.75;99.75;99161.09;4933054;29;20552;-63
2021/01/28 12:38:29;;;;;;;12.05;4.90;;;;;;;-1.75;99.77;99165.41;4933626;29;20055;-65
2021/01/28 12:41:14;;;;;;;8.95;4.65;;;;;;;-1.77;100.00;99164.59;4933640;29;20067;-64
2021/01/28 12:43:59;;;;;;;8.25;4.40;;;;;;;-1.74;99.60;99167.88;4933562;29;20059;-66
2021/01/28 12:46:45;;;;;;;12.68;5.78;;;;;;;-1.72;99.17;99172.94;4932605;29;20215;-64
2021/01/28 12:49:31;;;;;;;8.27;4.38;;;;;;;-1.72;99.85;99171.22;4933604;29;20055;-64
2021/01/28 12:52:16;;;;;;;11.40;5.15;;;;;;;-1.70;99.89;99177.13;4932928;29;20514;-63
2021/01/28 12:55:01;;;;;;;9.68;5.22;;;;;;;-1.69;99.22;99171.09;4932702;29;20521;-65
2021/01/28 12:57:46;;;;;;;8.70;4.95;;;;;;;-1.70;99.58;99174.56;4933473;29;20105;-63
2021/01/28 13:00:35;;;;;;;10.75;5.10;;;;;;;-1.69;99.67;99183.09;4933311;29;20055;-65
2021/01/28 13:03:21;;;;;;;10.88;4.80;;;;;;;-1.69;100.00;99180.53;4932782;29;20525;-63
2021/01/28 13:06:07;;;;;;;10.88;5.53;;;;;;;-1.69;100.00;99183.09;4932861;29;20070;-63
2021/01/28 13:08:52;;;;;;;8.48;5.43;;;;;;;-1.69;99.92;99183.91;4932902;29;20063;-65
2021/01/28 13:11:37;;;;;;;12.02;5.47;;;;;;;-1.67;100.00;99178.72;4933257;29;20624;-64
2021/01/28 13:14:26;;;;;;;12.70;5.65;;;;;;;-1.63;99.94;99178.53;4932618;29;20050;-63
2021/01/28 13:17:12;;;;;;;11.23;4.90;;;;;;;-1.64;100.00;99182.00;4932906;29;20108;-63
2021/01/28 13:19:57;;;;;;;10.68;5.20;;;;;;;-1.61;99.70;99188.75;4932870;29;20063;-63
2021/01/28 13:22:42;;;;;;;11.20;4.68;;;;;;;-1.61;99.87;99187.03;4933128;29;20059;-66
2021/01/28 13:25:27;;;;;;;12.90;5.07;;;;;;;-1.62;100.00;99182.75;4932724;29;20101;-64
2021/01/28 13:28:12;;;;;;;11.77;5.57;;;;;;;-1.61;100.00;99179.34;4932556;29;20051;-65
2021/01/28 13:30:57;;;;;;;11.38;5.50;;;;;;;-1.61;99.74;99179.34;4932465;29;20047;-63
2021/01/28 13:33:43;;;;;;;8.13;4.65;;;;;;;-1.60;100.00;99180.16;4932326;29;20063;-63
2021/01/28 13:36:29;;;;;;;9.52;4.80;;;;;;;-1.58;99.92;99178.34;4932511;29;20521;-65